Time;durP1;ratioP1;P1;durP2;ratioP2;P2;SDS_P1;SDS_P2;PMS_P1;PMS_P2;Temp;Humidity;BMP_temperature;BMP_pressure;BME280_temperature;BME280_humidity;BME280_pressure;Samples;Min_cycle;Max_cycle;Signal;HPM_P1;HPM_P2
2024/01/01 00:00:12;;;;;;;82.75;57.90;;;;;;;2.35;72.55;93498.50;521807;28;838;-69
2024/01/01 00:00:27;;;;;;;80.68;55.47;;;;;;;2.34;72.62;93484.13;522439;28;897;-68
2024/01/01 00:00:43;;;;;;;79.77;53.27;;;;;;;2.38;72.17;93495.56;521951;28;1276;-69
2024/01/01 00:00:58;;;;;;;80.47;53.35;;;;;;;2.41;72.28;93493.78;522673;28;1918;-70
2024/01/01 00:01:14;;;;;;;78.53;52.43;;;;;;;2.42;72.26;93490.59;521815;28;907;-68
2024/01/01 00:01:31;;;;;;;75.35;51.35;;;;;;;2.44;72.03;93493.56;522835;28;845;-69
2024/01/01 00:01:46;;;;;;;74.20;52.15;;;;;;;2.47;72.54;93484.38;523904;28;952;-69
2024/01/01 00:02:02;;;;;;;76.38;53.38;;;;;;;2.49;72.24;93490.09;523967;28;918;-69
2024/01/01 00:02:17;;;;;;;79.50;53.92;;;;;;;2.51;72.39;93486.88;523514;28;1256;-69
2024/01/01 00:02:33;;;;;;;80.47;53.80;;;;;;;2.52;71.77;93494.56;524193;28;872;-68
2024/01/01 00:02:48;;;;;;;79.45;52.75;;;;;;;2.54;72.31;93491.31;523905;28;825;-68
2024/01/01 00:03:04;;;;;;;75.70;50.90;;;;;;;2.54;72.04;93492.06;522607;28;1784;-68
2024/01/01 00:03:20;;;;;;;74.82;51.63;;;;;;;2.55;71.38;93487.38;523348;28;794;-69
2024/01/01 00:03:37;;;;;;;79.37;53.23;;;;;;;2.54;71.96;93494.78;524037;28;1112;-68
2024/01/01 00:03:53;;;;;;;76.38;51.83;;;;;;;2.51;71.57;93493.09;523608;28;1009;-68
2024/01/01 00:04:09;;;;;;;77.70;51.20;;;;;;;2.37;71.36;93471.50;522072;28;902;-68
2024/01/01 00:04:26;;;;;;;84.88;52.38;;;;;;;2.52;71.64;93488.34;524857;28;1294;-69
2024/01/01 00:04:41;;;;;;;83.07;54.20;;;;;;;2.53;71.29;93496.06;523649;28;928;-68
2024/01/01 00:04:58;;;;;;;85.77;57.17;;;;;;;2.53;71.37;93493.31;523788;28;988;-69
2024/01/01 00:05:14;;;;;;;85.35;56.70;;;;;;;2.54;71.00;93489.34;522074;28;861;-69
2024/01/01 00:05:29;;;;;;;81.63;52.50;;;;;;;2.56;70.87;93492.31;523322;28;1143;-69
2024/01/01 00:05:45;;;;;;;80.10;52.67;;;;;;;2.57;71.31;93491.09;523780;28;856;-68
2024/01/01 00:06:02;;;;;;;85.10;56.20;;;;;;;2.58;70.29;93489.84;522889;28;1776;-68
2024/01/01 00:06:17;;;;;;;91.05;60.42;;;;;;;2.56;70.45;93486.13;521742;28;944;-68
2024/01/01 00:06:32;;;;;;;99.93;67.45;;;;;;;2.56;70.47;93494.28;523437;28;798;-68
2024/01/01 00:06:48;;;;;;;105.27;72.73;;;;;;;2.56;70.40;93489.59;523645;28;801;-69
2024/01/01 00:07:03;;;;;;;105.50;73.78;;;;;;;2.50;70.38;93477.97;523657;28;883;-69
2024/01/01 00:07:19;;;;;;;108.27;74.87;;;;;;;2.59;69.94;93482.41;521254;28;1093;-69
2024/01/01 00:07:35;;;;;;;117.65;79.55;;;;;;;2.61;70.50;93488.09;523241;28;826;-69
2024/01/01 00:07:51;;;;;;;126.73;83.77;;;;;;;2.62;70.51;93486.88;523759;28;885;-68
2024/01/01 00:08:07;;;;;;;129.00;86.95;;;;;;;2.64;69.86;93489.84;522941;28;924;-67
2024/01/01 00:08:22;;;;;;;132.32;88.78;;;;;;;2.65;70.52;93483.91;521884;28;857;-70
2024/01/01 00:08:38;;;;;;;131.43;88.77;;;;;;;2.67;69.80;93484.13;523894;28;821;-68
2024/01/01 00:08:54;;;;;;;131.75;89.15;;;;;;;2.69;70.18;93480.91;522818;28;1562;-69
2024/01/01 00:09:09;;;;;;;135.07;89.47;;;;;;;2.68;70.17;93480.19;522875;28;837;-69
2024/01/01 00:09:25;;;;;;;133.70;89.43;;;;;;;2.70;70.06;93482.41;523430;28;1142;-68
2024/01/01 00:09:40;;;;;;;125.90;84.88;;;;;;;2.70;70.33;93480.44;523262;28;1374;-69
2024/01/01 00:09:56;;;;;;;119.00;81.87;;;;;;;2.72;69.92;93491.56;523944;28;754;-71
2024/01/01 00:10:11;;;;;;;121.20;84.07;;;;;;;2.74;69.86;93483.66;524004;28;854;-69
2024/01/01 00:10:27;;;;;;;121.88;83.25;;;;;;;2.75;70.34;93485.13;521838;28;1152;-69
2024/01/01 00:10:44;;;;;;;119.23;80.93;;;;;;;2.76;69.62;93480.41;523266;28;789;-69
2024/01/01 00:10:59;;;;;;;114.93;79.35;;;;;;;2.73;69.59;93487.59;523544;28;841;-69
2024/01/01 00:11:15;;;;;;;113.10;77.97;;;;;;;2.70;69.93;93482.41;522031;28;861;-69
2024/01/01 00:11:30;;;;;;;111.47;76.45;;;;;;;2.69;69.19;93486.34;522497;28;1627;-68
2024/01/01 00:11:46;;;;;;;113.63;76.20;;;;;;;2.67;69.34;93489.59;522484;28;852;-68
2024/01/01 00:12:01;;;;;;;110.95;73.75;;;;;;;2.66;69.85;93490.84;523728;28;1004;-69
2024/01/01 00:12:17;;;;;;;104.13;70.47;;;;;;;2.67;69.85;93484.13;521694;28;1437;-69
2024/01/01 00:12:33;;;;;;;105.13;71.03;;;;;;;2.67;69.57;93484.13;523398;28;742;-68
2024/01/01 00:12:48;;;;;;;105.82;70.88;;;;;;;2.66;69.64;93485.41;521706;28;838;-69
2024/01/01 00:13:04;;;;;;;102.67;68.23;;;;;;;2.59;69.72;93479.69;521792;28;797;-68
2024/01/01 00:13:19;;;;;;;104.82;69.40;;;;;;;2.57;69.84;93485.63;521824;28;829;-68
2024/01/01 00:13:35;;;;;;;102.07;69.43;;;;;;;2.56;69.87;93484.13;523534;28;887;-68
2024/01/01 00:13:50;;;;;;;104.75;69.68;;;;;;;2.50;69.32;93483.41;521962;28;1116;-68
2024/01/01 00:14:06;;;;;;;108.37;69.67;;;;;;;2.46;69.36;93484.88;521745;28;821;-68
2024/01/01 00:14:21;;;;;;;104.47;68.03;;;;;;;2.42;69.60;93487.13;521999;28;1863;-68
2024/01/01 00:14:37;;;;;;;99.33;66.60;;;;;;;2.42;69.73;93487.88;523735;28;798;-68
2024/01/01 00:14:52;;;;;;;99.43;66.70;;;;;;;2.43;69.19;93481.16;522316;28;907;-68
2024/01/01 00:15:08;;;;;;;104.73;68.73;;;;;;;2.46;69.43;93488.38;521760;28;809;-68
2024/01/01 00:15:24;;;;;;;99.05;66.38;;;;;;;2.48;69.87;93485.88;521934;28;1173;-69
2024/01/01 00:15:40;;;;;;;91.13;62.45;;;;;;;2.50;69.78;93485.38;523199;28;1137;-69
2024/01/01 00:15:55;;;;;;;86.07;59.05;;;;;;;2.48;69.61;93482.41;521766;28;794;-69
2024/01/01 00:16:14;;;;;;;84.03;56.60;;;;;;;2.46;69.82;93491.09;521872;28;785;-69
2024/01/01 00:16:29;;;;;;;83.10;56.60;;;;;;;2.43;69.33;93492.06;522682;28;900;-68
2024/01/01 00:16:45;;;;;;;79.03;55.00;;;;;;;2.38;69.57;93487.38;523867;28;873;-68
2024/01/01 00:17:01;;;;;;;79.57;53.10;;;;;;;2.38;69.57;93489.34;523672;28;1025;-68
2024/01/01 00:17:17;;;;;;;78.53;51.30;;;;;;;2.37;69.53;93487.84;522760;28;1294;-70
2024/01/01 00:17:33;;;;;;;76.55;51.58;;;;;;;2.38;69.50;93489.34;523312;28;853;-69
2024/01/01 00:17:48;;;;;;;75.50;51.65;;;;;;;2.39;69.34;93488.84;523774;28;955;-69
2024/01/01 00:18:04;;;;;;;74.20;51.23;;;;;;;2.33;69.34;93473.75;523734;28;1732;-68
2024/01/01 00:18:20;;;;;;;75.90;51.75;;;;;;;2.40;69.80;93484.91;522953;28;900;-68
2024/01/01 00:18:35;;;;;;;75.55;51.22;;;;;;;2.42;69.41;93484.41;523427;28;1044;-69
2024/01/01 00:18:52;;;;;;;77.43;50.90;;;;;;;2.45;69.55;93484.13;523212;28;1177;-69
2024/01/01 00:19:07;;;;;;;73.82;48.88;;;;;;;2.46;69.44;93485.63;521816;28;857;-69
2024/01/01 00:19:23;;;;;;;66.37;45.90;;;;;;;2.49;69.20;93483.91;521801;28;790;-68
2024/01/01 00:19:39;;;;;;;65.47;45.03;;;;;;;2.46;68.98;93480.19;523882;28;856;-68
2024/01/01 00:19:54;;;;;;;65.55;44.67;;;;;;;2.50;69.14;93491.59;523804;28;801;-69
2024/01/01 00:20:10;;;;;;;63.90;44.20;;;;;;;2.50;68.76;93486.13;523809;28;1009;-69
2024/01/01 00:20:26;;;;;;;58.35;41.92;;;;;;;2.50;68.53;93488.09;523347;28;1236;-68
2024/01/01 00:20:41;;;;;;;52.40;38.28;;;;;;;2.46;69.06;93485.63;524087;28;805;-66
2024/01/01 00:20:57;;;;;;;53.70;37.43;;;;;;;2.41;68.88;93489.09;521981;28;1906;-68
2024/01/01 00:21:13;;;;;;;57.40;38.65;;;;;;;2.37;69.05;93494.06;522405;28;1550;-68
2024/01/01 00:21:28;;;;;;;61.22;39.30;;;;;;;2.36;68.90;93487.09;521805;28;1094;-68
2024/01/01 00:21:44;;;;;;;61.57;39.87;;;;;;;2.34;69.15;93489.59;523965;28;828;-68
2024/01/01 00:21:59;;;;;;;57.85;40.35;;;;;;;2.31;69.24;93487.88;523384;28;1011;-68
2024/01/01 00:22:15;;;;;;;58.17;41.27;;;;;;;2.30;69.47;93484.38;522053;28;852;-68
2024/01/01 00:22:31;;;;;;;60.88;42.25;;;;;;;2.32;69.54;93491.34;523069;28;821;-68
2024/01/01 00:22:48;;;;;;;60.63;41.03;;;;;;;2.34;69.41;93492.31;523875;28;857;-68
2024/01/01 00:23:04;;;;;;;58.22;40.45;;;;;;;2.36;69.44;93487.09;521906;28;1030;-68
2024/01/01 00:23:19;;;;;;;58.60;42.27;;;;;;;2.37;69.38;93488.59;523700;28;826;-68
2024/01/01 00:23:35;;;;;;;60.92;43.85;;;;;;;2.39;69.70;93490.81;522741;28;1724;-67
2024/01/01 00:23:51;;;;;;;63.37;43.80;;;;;;;2.37;69.35;93488.59;521806;28;998;-68
2024/01/01 00:24:06;;;;;;;62.95;43.53;;;;;;;2.32;69.11;93488.63;523183;28;833;-69
2024/01/01 00:24:22;;;;;;;60.80;42.83;;;;;;;2.30;69.13;93487.13;523790;28;778;-69
2024/01/01 00:24:37;;;;;;;64.70;43.45;;;;;;;2.29;69.98;93487.63;523243;28;1014;-69
2024/01/01 00:24:53;;;;;;;69.07;45.17;;;;;;;2.30;69.24;93489.09;523831;28;904;-68
2024/01/01 00:25:08;;;;;;;63.27;44.27;;;;;;;2.30;69.63;93489.84;523769;28;840;-69
2024/01/01 00:25:24;;;;;;;62.33;44.40;;;;;;;2.33;70.16;93490.09;523819;28;853;-68
2024/01/01 00:25:40;;;;;;;68.67;45.93;;;;;;;2.34;69.82;93489.59;522944;28;924;-68
2024/01/01 00:25:55;;;;;;;71.38;46.58;;;;;;;2.35;70.07;93485.63;521738;28;845;-69
2024/01/01 00:26:11;;;;;;;70.60;47.87;;;;;;;2.37;69.90;93487.84;521851;28;1120;-68
2024/01/01 00:26:26;;;;;;;68.25;47.50;;;;;;;2.37;69.71;93488.59;523805;28;1091;-69
2024/01/01 00:26:41;;;;;;;67.70;46.37;;;;;;;2.39;69.67;93488.84;522434;28;1586;-69
2024/01/01 00:26:57;;;;;;;68.18;46.08;;;;;;;2.40;69.52;93486.88;521802;28;1394;-68
2024/01/01 00:27:13;;;;;;;66.70;46.07;;;;;;;2.40;69.22;93487.63;521980;28;805;-68
2024/01/01 00:27:28;;;;;;;69.03;46.88;;;;;;;2.39;70.00;93490.81;523798;28;747;-69
2024/01/01 00:27:44;;;;;;;70.07;46.60;;;;;;;2.39;70.05;93480.69;522508;28;857;-69
2024/01/01 00:27:59;;;;;;;65.78;45.03;;;;;;;2.39;69.49;93488.09;523041;28;954;-69
2024/01/01 00:28:15;;;;;;;62.43;43.83;;;;;;;2.30;69.58;93472.75;524115;28;817;-68
2024/01/01 00:28:30;;;;;;;59.33;42.78;;;;;;;2.38;69.81;93484.66;523783;28;1251;-68
2024/01/01 00:28:46;;;;;;;63.27;43.30;;;;;;;2.37;69.85;93485.13;522753;28;869;-68
2024/01/01 00:29:03;;;;;;;66.57;43.95;;;;;;;2.35;69.08;93482.91;521953;28;831;-68
2024/01/01 00:29:19;;;;;;;63.40;42.90;;;;;;;2.29;69.70;93484.91;521947;28;826;-68
2024/01/01 00:29:34;;;;;;;64.15;43.35;;;;;;;2.21;69.97;93486.59;523449;28;916;-68
2024/01/01 00:29:50;;;;;;;67.03;44.87;;;;;;;2.13;70.31;93483.63;523637;28;1271;-68
2024/01/01 00:30:06;;;;;;;64.80;45.10;;;;;;;2.10;70.17;93492.78;522693;28;1380;-68
2024/01/01 00:30:21;;;;;;;60.38;43.60;;;;;;;2.02;70.27;93477.41;521632;28;1164;-68
2024/01/01 00:30:38;;;;;;;65.50;44.17;;;;;;;2.05;70.27;93487.34;523201;28;880;-67
2024/01/01 00:30:53;;;;;;;67.35;44.25;;;;;;;2.07;70.61;93487.59;522676;28;1576;-68
2024/01/01 00:31:09;;;;;;;63.65;43.03;;;;;;;2.08;70.39;93483.63;521891;28;1486;-67
2024/01/01 00:31:24;;;;;;;61.30;42.90;;;;;;;2.10;70.51;93486.63;522671;28;1138;-69
2024/01/01 00:31:40;;;;;;;60.85;43.67;;;;;;;2.12;70.91;93484.13;522255;28;893;-68
2024/01/01 00:31:55;;;;;;;60.93;43.00;;;;;;;2.13;70.22;93480.16;521901;28;864;-68
2024/01/01 00:32:11;;;;;;;62.33;40.88;;;;;;;2.12;70.40;93484.13;523769;28;829;-68
2024/01/01 00:32:26;;;;;;;62.83;38.87;;;;;;;2.13;70.57;93486.34;524163;28;797;-68
2024/01/01 00:32:42;;;;;;;55.20;37.03;;;;;;;2.08;70.00;93473.47;522393;28;1246;-68
2024/01/01 00:32:58;;;;;;;55.00;37.93;;;;;;;2.16;70.33;93479.19;523939;28;897;-68
2024/01/01 00:33:13;;;;;;;57.35;38.50;;;;;;;2.12;70.57;93476.69;522436;28;1066;-67
2024/01/01 00:33:29;;;;;;;54.85;37.78;;;;;;;2.11;70.40;93488.84;522811;28;868;-68
2024/01/01 00:33:44;;;;;;;51.57;35.80;;;;;;;2.04;70.60;93485.84;524047;28;822;-68
2024/01/01 00:34:01;;;;;;;49.40;35.03;;;;;;;1.97;70.87;93483.63;522674;28;1350;-68
2024/01/01 00:34:17;;;;;;;53.47;35.90;;;;;;;1.87;70.73;93482.34;522123;28;916;-70
2024/01/01 00:34:33;;;;;;;50.60;35.25;;;;;;;1.86;70.79;93489.78;522537;28;1514;-68
2024/01/01 00:34:49;;;;;;;47.57;34.77;;;;;;;1.87;71.19;93480.38;522795;28;790;-68
2024/01/01 00:35:05;;;;;;;48.47;34.25;;;;;;;1.89;71.36;93479.88;521736;28;892;-68
2024/01/01 00:35:20;;;;;;;55.58;35.13;;;;;;;1.90;71.17;93484.09;523838;28;866;-68
2024/01/01 00:35:36;;;;;;;58.67;36.20;;;;;;;1.75;71.28;93461.78;522576;28;1207;-69
2024/01/01 00:35:51;;;;;;;55.22;35.78;;;;;;;1.85;71.57;93487.53;521743;28;773;-68
2024/01/01 00:36:07;;;;;;;53.38;34.78;;;;;;;1.81;71.61;93485.06;522978;28;1057;-68
2024/01/01 00:36:23;;;;;;;48.35;33.90;;;;;;;1.79;71.32;93481.34;523823;28;903;-68
2024/01/01 00:36:38;;;;;;;46.27;32.43;;;;;;;1.79;71.68;93492.22;522753;28;825;-68
2024/01/01 00:36:54;;;;;;;43.85;30.80;;;;;;;1.79;71.55;93495.69;521765;28;857;-68
2024/01/01 00:37:10;;;;;;;45.40;31.47;;;;;;;1.81;71.40;93484.31;521409;28;1350;-68
2024/01/01 00:37:25;;;;;;;44.30;30.75;;;;;;;1.84;71.58;93488.78;522147;28;1781;-68
2024/01/01 00:37:41;;;;;;;43.45;31.15;;;;;;;1.88;71.27;93498.19;522992;28;871;-68
2024/01/01 00:37:56;;;;;;;44.70;31.63;;;;;;;1.90;71.59;93486.81;523697;28;868;-67
2024/01/01 00:38:12;;;;;;;42.35;30.48;;;;;;;1.90;71.13;93484.09;523827;28;852;-68
2024/01/01 00:38:27;;;;;;;45.77;32.10;;;;;;;1.91;71.37;93488.28;522784;28;801;-68
2024/01/01 00:38:44;;;;;;;49.35;33.58;;;;;;;1.93;70.97;93497.44;521890;28;1244;-68
2024/01/01 00:39:00;;;;;;;52.53;36.33;;;;;;;1.94;70.36;93490.03;523802;28;865;-68
2024/01/01 00:39:15;;;;;;;60.13;40.47;;;;;;;1.97;70.71;93491.78;523712;28;1099;-68
2024/01/01 00:39:31;;;;;;;67.40;44.83;;;;;;;1.97;70.34;93487.06;524167;28;778;-68
2024/01/01 00:39:46;;;;;;;71.00;47.50;;;;;;;1.99;70.52;93489.31;523785;28;889;-68
2024/01/01 00:40:02;;;;;;;67.97;46.40;;;;;;;2.01;70.80;93489.56;523786;28;830;-68
2024/01/01 00:40:18;;;;;;;65.47;46.50;;;;;;;2.03;70.85;93497.97;523450;28;1148;-69
2024/01/01 00:40:33;;;;;;;65.83;46.40;;;;;;;2.04;70.70;93491.28;524025;28;924;-69
2024/01/01 00:40:49;;;;;;;65.82;45.15;;;;;;;2.05;70.82;93496.25;523617;28;1914;-68
2024/01/01 00:41:04;;;;;;;67.47;45.87;;;;;;;2.07;70.53;93493.03;523876;28;877;-69
2024/01/01 00:41:20;;;;;;;70.63;47.50;;;;;;;2.07;71.35;93493.78;523822;28;945;-68
2024/01/01 00:41:38;;;;;;;72.90;48.33;;;;;;;2.08;71.03;93489.81;524175;28;868;-68
2024/01/01 00:41:54;;;;;;;75.07;50.17;;;;;;;2.09;71.16;93490.56;522838;28;1807;-69
2024/01/01 00:42:09;;;;;;;74.97;51.90;;;;;;;2.10;70.75;93492.06;522110;28;830;-68
2024/01/01 00:42:25;;;;;;;75.22;51.30;;;;;;;2.10;70.66;93492.06;523347;28;802;-68
2024/01/01 00:42:42;;;;;;;70.78;46.28;;;;;;;2.12;71.37;93495.75;523616;28;892;-68
2024/01/01 00:42:58;;;;;;;62.42;41.78;;;;;;;2.15;70.89;93496.75;522983;28;825;-67
2024/01/01 00:43:14;;;;;;;56.63;39.65;;;;;;;2.14;71.10;93490.56;522011;28;1141;-67
2024/01/01 00:43:29;;;;;;;52.70;37.47;;;;;;;2.15;71.48;93494.78;523876;28;1195;-68
2024/01/01 00:43:45;;;;;;;52.83;37.00;;;;;;;2.16;70.50;93493.56;523458;28;864;-68
2024/01/01 00:44:00;;;;;;;55.27;37.60;;;;;;;2.17;70.51;93489.56;523348;28;872;-69
2024/01/01 00:44:16;;;;;;;56.20;38.33;;;;;;;2.19;71.04;93494.53;523411;28;1093;-68
2024/01/01 00:44:32;;;;;;;57.93;39.97;;;;;;;2.20;70.57;93494.06;523634;28;1583;-68
2024/01/01 00:44:48;;;;;;;61.95;41.90;;;;;;;2.22;70.78;93493.53;522362;28;936;-68
2024/01/01 00:45:04;;;;;;;62.83;42.37;;;;;;;2.18;70.52;93498.50;523514;28;864;-68
2024/01/01 00:45:19;;;;;;;65.03;43.80;;;;;;;2.06;69.72;93494.25;523426;28;1386;-68
2024/01/01 00:45:35;;;;;;;77.77;51.40;;;;;;;2.04;69.86;93494.00;523717;28;794;-68
2024/01/01 00:45:50;;;;;;;102.83;65.57;;;;;;;2.01;70.79;93489.56;521393;28;1188;-68
2024/01/01 00:46:06;;;;;;;120.13;76.30;;;;;;;1.98;70.63;93495.97;523213;28;1405;-68
2024/01/01 00:46:21;;;;;;;127.20;80.27;;;;;;;1.99;70.83;93494.75;523639;28;884;-68
2024/01/01 00:46:37;;;;;;;122.68;78.43;;;;;;;1.99;70.54;93495.47;523924;28;801;-68
2024/01/01 00:46:52;;;;;;;115.77;73.83;;;;;;;2.01;70.60;93489.56;521505;28;1112;-68
2024/01/01 00:47:08;;;;;;;127.40;79.55;;;;;;;2.03;70.47;93492.53;521566;28;766;-68
2024/01/01 00:47:23;;;;;;;148.40;91.13;;;;;;;2.05;70.54;93490.81;522283;28;1081;-68
2024/01/01 00:47:39;;;;;;;171.63;101.07;;;;;;;2.08;70.94;93484.38;523649;28;1270;-68
2024/01/01 00:47:54;;;;;;;180.47;104.00;;;;;;;2.05;70.73;93493.53;523847;28;880;-68
2024/01/01 00:48:10;;;;;;;165.55;95.32;;;;;;;2.02;70.80;93486.34;523007;28;1783;-67
2024/01/01 00:48:25;;;;;;;151.40;91.47;;;;;;;2.05;70.98;93487.34;522680;28;886;-67
2024/01/01 00:48:41;;;;;;;147.75;89.55;;;;;;;2.08;70.97;93489.09;523206;28;777;-67
2024/01/01 00:48:57;;;;;;;142.85;87.35;;;;;;;2.09;70.61;93494.03;521764;28;1110;-68
2024/01/01 00:49:12;;;;;;;145.27;89.10;;;;;;;2.12;70.70;93492.31;522694;28;1338;-68
2024/01/01 00:49:28;;;;;;;143.23;87.23;;;;;;;2.15;70.75;93488.56;522454;28;853;-67
2024/01/01 00:49:43;;;;;;;131.10;83.68;;;;;;;2.15;71.15;93492.06;523954;28;814;-67
2024/01/01 00:50:00;;;;;;;129.40;81.73;;;;;;;2.10;70.37;93484.59;523858;28;1055;-67
2024/01/01 00:50:15;;;;;;;138.73;82.47;;;;;;;1.91;71.21;93469.97;523272;28;900;-67
2024/01/01 00:50:31;;;;;;;151.90;88.17;;;;;;;1.95;71.90;93481.38;523087;28;834;-68
2024/01/01 00:50:46;;;;;;;167.30;94.60;;;;;;;1.93;71.24;93483.09;522318;28;1322;-67
2024/01/01 00:51:02;;;;;;;175.10;94.40;;;;;;;1.93;71.62;93489.28;523868;28;782;-67
2024/01/01 00:51:18;;;;;;;169.75;92.80;;;;;;;1.94;72.01;93479.91;522205;28;1747;-67
2024/01/01 00:51:33;;;;;;;167.35;93.40;;;;;;;1.97;71.25;93491.78;523515;28;884;-67
2024/01/01 00:51:49;;;;;;;155.13;87.13;;;;;;;1.98;71.75;93491.28;521808;28;766;-67
2024/01/01 00:52:05;;;;;;;137.05;78.32;;;;;;;1.99;71.52;93495.47;522187;28;1725;-67
2024/01/01 00:52:20;;;;;;;121.87;70.93;;;;;;;2.00;71.77;93491.53;522845;28;1124;-68
2024/01/01 00:52:36;;;;;;;107.80;68.40;;;;;;;2.00;71.49;93493.50;523600;28;924;-67
2024/01/01 00:52:51;;;;;;;108.33;68.30;;;;;;;1.99;71.70;93492.75;523945;28;797;-67
2024/01/01 00:53:06;;;;;;;102.55;63.15;;;;;;;2.00;70.92;93488.06;522307;28;801;-67
2024/01/01 00:53:22;;;;;;;100.70;61.27;;;;;;;1.99;71.25;93492.03;521801;28;853;-67
2024/01/01 00:53:38;;;;;;;99.38;60.42;;;;;;;2.00;71.47;93486.09;523737;28;821;-67
2024/01/01 00:53:53;;;;;;;96.60;59.30;;;;;;;2.02;70.83;93493.75;523545;28;1096;-67
2024/01/01 00:54:10;;;;;;;92.17;57.33;;;;;;;2.04;71.07;93485.84;521988;28;1125;-67
2024/01/01 00:54:28;;;;;;;86.45;54.80;;;;;;;2.06;70.70;93491.53;521844;28;916;-67
2024/01/01 00:54:43;;;;;;;84.07;55.13;;;;;;;2.08;70.99;93489.09;521947;28;1570;-68
2024/01/01 00:55:00;;;;;;;88.10;55.80;;;;;;;2.10;70.69;93490.06;523253;28;892;-67
2024/01/01 00:55:15;;;;;;;84.65;53.95;;;;;;;2.11;70.26;93490.81;522005;28;828;-67
2024/01/01 00:55:31;;;;;;;79.27;51.77;;;;;;;2.13;70.38;93491.06;522876;28;778;-67
2024/01/01 00:55:47;;;;;;;78.30;49.88;;;;;;;2.14;69.90;93492.56;523230;28;1362;-68
2024/01/01 00:56:03;;;;;;;76.25;48.35;;;;;;;2.16;70.50;93495.53;523846;28;845;-68
2024/01/01 00:56:18;;;;;;;72.07;46.35;;;;;;;2.17;69.70;93494.28;523804;28;841;-68
2024/01/01 00:56:34;;;;;;;63.83;42.43;;;;;;;2.19;69.93;93491.81;524185;28;869;-68
2024/01/01 00:56:54;;;;;;;55.97;38.65;;;;;;;2.15;69.59;93488.56;522174;28;882;-68
2024/01/01 00:57:09;;;;;;;54.97;37.53;;;;;;;2.04;69.60;93489.31;521738;28;845;-68
2024/01/01 00:57:25;;;;;;;56.58;37.15;;;;;;;1.97;69.88;93495.22;521783;28;1436;-68
2024/01/01 00:57:40;;;;;;;58.23;37.30;;;;;;;1.93;69.99;93486.56;521784;28;793;-67
2024/01/01 00:57:56;;;;;;;58.80;37.78;;;;;;;1.89;70.08;93493.47;523414;28;822;-67
2024/01/01 00:58:12;;;;;;;57.28;39.30;;;;;;;1.86;70.08;93489.78;523841;28;904;-67
2024/01/01 00:58:27;;;;;;;58.78;40.47;;;;;;;1.84;70.25;93486.06;522680;28;845;-67
2024/01/01 00:58:43;;;;;;;61.60;40.43;;;;;;;1.83;70.10;93490.75;521718;28;806;-67
2024/01/01 00:58:59;;;;;;;64.70;41.70;;;;;;;1.72;70.33;93492.69;522898;28;1322;-67
2024/01/01 00:59:14;;;;;;;63.72;41.58;;;;;;;1.60;70.88;93497.38;523781;28;891;-67
2024/01/01 00:59:30;;;;;;;63.13;40.80;;;;;;;1.55;70.65;93492.66;524062;28;810;-67
2024/01/01 00:59:45;;;;;;;59.15;40.88;;;;;;;1.50;70.88;93496.84;523784;28;837;-67
2024/01/01 01:00:01;;;;;;;60.03;43.43;;;;;;;1.48;71.05;93499.31;523597;28;944;-68
2024/01/01 01:00:17;;;;;;;76.70;49.83;;;;;;;1.50;71.22;93491.41;523802;28;857;-67
2024/01/01 01:00:32;;;;;;;96.75;56.95;;;;;;;1.52;71.29;93494.38;523699;28;1425;-67
2024/01/01 01:00:48;;;;;;;100.47;58.33;;;;;;;1.57;71.95;93501.06;523589;28;1914;-67
2024/01/01 01:01:04;;;;;;;96.77;57.17;;;;;;;1.61;71.66;93503.53;523800;28;798;-67
2024/01/01 01:01:19;;;;;;;90.93;54.45;;;;;;;1.65;71.55;93495.88;522217;28;802;-67
2024/01/01 01:01:35;;;;;;;86.17;51.63;;;;;;;1.68;71.71;93501.09;523429;28;794;-67
2024/01/01 01:01:50;;;;;;;76.60;47.63;;;;;;;1.71;71.60;93500.09;521658;28;818;-67
2024/01/01 01:02:06;;;;;;;61.40;40.37;;;;;;;1.74;71.44;93504.59;522295;28;1239;-67
2024/01/01 01:02:21;;;;;;;53.80;34.92;;;;;;;1.76;71.30;93504.09;523752;28;821;-67
2024/01/01 01:02:37;;;;;;;48.43;32.33;;;;;;;1.77;71.60;93500.13;524169;28;801;-67
2024/01/01 01:02:52;;;;;;;45.47;30.48;;;;;;;1.81;71.72;93508.81;523697;28;786;-67
2024/01/01 01:03:08;;;;;;;43.97;29.23;;;;;;;1.83;71.23;93503.63;521242;28;1417;-67
2024/01/01 01:03:24;;;;;;;43.30;27.50;;;;;;;1.86;71.13;93503.41;521732;28;857;-67
2024/01/01 01:03:39;;;;;;;37.72;24.13;;;;;;;1.88;70.94;93498.19;523864;28;1055;-67
2024/01/01 01:03:55;;;;;;;29.27;20.20;;;;;;;1.88;71.11;93508.34;523754;28;1218;-67
2024/01/01 01:04:10;;;;;;;26.65;17.42;;;;;;;1.89;70.33;93498.94;523635;28;853;-67
2024/01/01 01:04:26;;;;;;;26.00;16.70;;;;;;;1.85;70.38;93510.06;525463;28;1320;-67
2024/01/01 01:04:46;;;;;;;23.33;16.33;;;;;;;1.82;70.07;93502.88;522661;28;1392;-68
2024/01/01 01:05:01;;;;;;;22.13;16.17;;;;;;;1.80;69.82;93501.91;523671;28;1164;-68
2024/01/01 01:05:19;;;;;;;21.30;16.77;;;;;;;1.80;70.06;93502.63;521824;28;790;-68
2024/01/01 01:05:35;;;;;;;22.13;16.63;;;;;;;1.74;70.02;93501.88;523150;28;1948;-68
2024/01/01 01:05:50;;;;;;;22.48;16.35;;;;;;;1.73;69.74;93502.34;521681;28;861;-67
2024/01/01 01:06:06;;;;;;;23.60;17.30;;;;;;;1.74;69.71;93498.38;521660;28;898;-69
2024/01/01 01:06:21;;;;;;;27.00;19.02;;;;;;;1.74;69.79;93501.13;521550;28;1434;-67
2024/01/01 01:06:37;;;;;;;31.83;21.53;;;;;;;1.72;69.67;93496.16;523648;28;834;-67
2024/01/01 01:06:55;;;;;;;35.78;24.63;;;;;;;1.71;69.34;93504.84;521852;28;845;-67
2024/01/01 01:07:10;;;;;;;44.75;28.98;;;;;;;1.72;69.69;93498.13;523652;28;1029;-67
2024/01/01 01:07:26;;;;;;;48.77;31.07;;;;;;;1.73;69.52;93497.66;522329;28;1783;-67
2024/01/01 01:07:41;;;;;;;53.28;35.13;;;;;;;1.76;69.93;93498.63;522033;28;837;-67
2024/01/01 01:07:58;;;;;;;60.28;38.25;;;;;;;1.77;69.62;93500.13;521471;28;1315;-67
2024/01/01 01:08:14;;;;;;;61.13;37.30;;;;;;;1.78;69.30;93491.47;521729;28;927;-67
2024/01/01 01:08:29;;;;;;;67.77;41.57;;;;;;;1.80;69.57;93494.44;524038;28;895;-67
2024/01/01 01:08:45;;;;;;;81.77;49.20;;;;;;;1.81;70.02;93495.94;523913;28;1151;-67
2024/01/01 01:09:00;;;;;;;95.47;57.10;;;;;;;1.82;69.61;93500.16;523903;28;849;-67
2024/01/01 01:09:16;;;;;;;101.80;60.88;;;;;;;1.82;69.29;93496.69;523890;28;784;-67
2024/01/01 01:09:32;;;;;;;100.63;59.33;;;;;;;1.83;69.84;93490.00;524018;28;1212;-67
2024/01/01 01:09:48;;;;;;;101.32;59.38;;;;;;;1.84;69.82;93489.50;523875;28;860;-67
2024/01/01 01:10:04;;;;;;;102.18;60.08;;;;;;;1.86;69.74;93494.47;523912;28;928;-67
2024/01/01 01:10:19;;;;;;;99.78;58.65;;;;;;;1.87;69.90;93493.97;523721;28;1060;-67
2024/01/01 01:10:35;;;;;;;103.50;60.40;;;;;;;1.88;70.13;93492.00;524215;28;869;-67
2024/01/01 01:10:51;;;;;;;104.60;61.47;;;;;;;1.89;69.50;93494.22;523948;28;852;-67
2024/01/01 01:11:06;;;;;;;108.95;63.10;;;;;;;1.90;70.11;93494.97;522079;28;1307;-67
2024/01/01 01:11:22;;;;;;;111.90;64.50;;;;;;;1.91;69.81;93491.75;521908;28;889;-67
2024/01/01 01:11:38;;;;;;;105.22;61.13;;;;;;;1.93;70.31;93493.97;523764;28;874;-67
2024/01/01 01:11:53;;;;;;;103.57;58.53;;;;;;;1.93;69.89;93497.44;523040;28;1737;-67
2024/01/01 01:12:09;;;;;;;106.87;60.57;;;;;;;1.91;70.14;93493.72;522361;28;802;-67
2024/01/01 01:12:24;;;;;;;108.50;62.33;;;;;;;1.88;70.09;93498.19;523247;28;786;-67
2024/01/01 01:12:40;;;;;;;99.35;57.42;;;;;;;1.90;70.46;93494.97;522201;28;1223;-67
2024/01/01 01:12:55;;;;;;;93.07;53.97;;;;;;;1.91;70.21;93496.44;521726;28;786;-67
2024/01/01 01:13:11;;;;;;;86.20;50.80;;;;;;;1.92;69.59;93497.94;521912;28;858;-67
2024/01/01 01:13:26;;;;;;;83.23;50.67;;;;;;;1.91;69.91;93496.44;522024;28;1004;-67
2024/01/01 01:13:42;;;;;;;83.95;51.47;;;;;;;1.90;69.61;93493.00;523931;28;869;-68
2024/01/01 01:13:57;;;;;;;83.77;49.33;;;;;;;1.90;69.67;93489.53;522685;28;854;-67
2024/01/01 01:14:13;;;;;;;80.32;47.58;;;;;;;1.91;69.77;93491.00;521568;28;1093;-67
2024/01/01 01:14:28;;;;;;;78.53;46.50;;;;;;;1.90;69.54;93493.00;522044;28;1678;-67
2024/01/01 01:14:44;;;;;;;77.00;45.28;;;;;;;1.91;69.50;93491.75;522976;28;881;-67
2024/01/01 01:15:00;;;;;;;69.87;44.10;;;;;;;1.93;69.54;93491.25;522480;28;762;-67
2024/01/01 01:15:16;;;;;;;70.30;43.13;;;;;;;1.94;69.45;93495.47;523721;28;869;-67